Time;durP1;ratioP1;P1;durP2;ratioP2;P2;SDS_P1;SDS_P2;PMS_P1;PMS_P2;Temp;Humidity;BMP_temperature;BMP_pressure;BME280_temperature;BME280_humidity;BME280_pressure;Samples;Min_cycle;Max_cycle;Signal;HPM_P1;HPM_P2
2022/05/21 00:05:21;;;;;;;10.40;6.58;;;;;;;17.82;83.19;99659.70;713827;1174;114186;-76
2022/05/21 00:35:47;;;;;;;10.43;7.10;;;;;;;17.63;84.59;99614.30;713625;1174;114168;-77
2022/05/21 00:50:49;;;;;;;11.60;6.25;;;;;;;17.72;84.64;99585.78;713832;1174;115353;-77
2022/05/21 01:05:52;;;;;;;10.18;6.65;;;;;;;17.76;85.87;99569.28;713342;1174;115229;-76
2022/05/21 01:20:58;;;;;;;10.00;7.55;;;;;;;17.74;86.32;99551.93;712985;1174;114158;-75
2022/05/21 01:36:00;;;;;;;12.70;8.60;;;;;;;17.56;87.59;99529.42;713192;1174;115418;-76
2022/05/21 01:51:03;;;;;;;14.40;8.75;;;;;;;17.41;88.19;99500.42;713177;1174;114198;-76
2022/05/21 02:06:06;;;;;;;16.43;10.55;;;;;;;17.46;90.11;99468.02;713304;1173;114205;-77
2022/05/21 02:21:08;;;;;;;23.90;12.68;;;;;;;17.39;90.76;99440.66;713052;1174;116027;-77
2022/05/21 02:36:11;;;;;;;19.00;10.65;;;;;;;17.19;92.22;99430.02;713142;1174;114906;-77
2022/05/21 02:51:13;;;;;;;17.65;10.80;;;;;;;17.11;93.56;99389.41;713144;1174;114819;-77
2022/05/21 03:06:16;;;;;;;16.38;11.08;;;;;;;17.11;94.92;99400.02;713223;1174;115756;-76
2022/05/21 03:21:18;;;;;;;17.77;11.87;;;;;;;17.00;97.40;99379.41;713333;1174;115443;-77
2022/05/21 03:36:21;;;;;;;16.00;11.33;;;;;;;17.19;97.18;99356.62;713321;1174;115547;-77
2022/05/21 03:51:24;;;;;;;15.60;12.83;;;;;;;17.18;98.87;99336.44;713233;1174;115972;-77
2022/05/21 04:06:27;;;;;;;21.88;13.75;;;;;;;17.12;100.00;99292.22;713263;1174;114366;-77
2022/05/21 04:21:29;;;;;;;20.20;15.23;;;;;;;17.07;100.00;99261.01;713356;1174;115232;-77
2022/05/21 04:36:32;;;;;;;19.75;14.03;;;;;;;17.15;100.00;99235.34;713783;1174;114870;-85
2022/05/21 04:51:38;;;;;;;21.80;16.20;;;;;;;17.10;100.00;99234.13;713551;1174;115323;-83
2022/05/21 05:06:40;;;;;;;18.10;13.70;;;;;;;17.07;100.00;99241.66;713731;1174;114426;-75
2022/05/21 05:21:43;;;;;;;11.50;9.20;;;;;;;17.13;100.00;99239.02;713016;1174;114494;-78
2022/05/21 05:36:47;;;;;;;15.00;11.10;;;;;;;17.52;100.00;99233.88;713165;1174;115708;-78
2022/05/21 05:51:50;;;;;;;11.47;8.87;;;;;;;17.71;100.00;99216.33;713501;1174;114412;-75
2022/05/21 06:06:52;;;;;;;9.63;7.25;;;;;;;17.71;100.00;99234.05;713467;1174;115591;-75
2022/05/21 06:21:58;;;;;;;5.08;3.90;;;;;;;17.21;100.00;99261.02;713528;1174;115439;-75
2022/05/21 06:37:05;;;;;;;1.88;1.45;;;;;;;16.61;100.00;99278.41;714464;1174;114867;-76
2022/05/21 06:52:07;;;;;;;4.00;1.40;;;;;;;16.54;98.55;99279.42;713855;1174;114966;-75
2022/05/21 07:22:31;;;;;;;1.65;1.50;;;;;;;16.37;91.07;99322.10;713429;1174;114985;-74
2022/05/21 07:37:35;;;;;;;1.23;0.80;;;;;;;16.66;86.89;99338.72;713302;1174;114029;-74
2022/05/21 07:52:39;;;;;;;1.33;1.00;;;;;;;16.60;85.31;99373.92;713622;1174;114615;-75
2022/05/21 08:07:41;;;;;;;3.13;1.10;;;;;;;16.60;82.47;99381.86;713375;1174;113982;-83
2022/05/21 08:38:08;;;;;;;2.43;1.20;;;;;;;16.90;78.60;99410.75;713752;1174;114950;-76
2022/05/21 08:53:24;;;;;;;3.77;1.00;;;;;;;16.76;77.29;99394.78;713525;1174;114941;-75
2022/05/21 09:08:33;;;;;;;6.85;1.15;;;;;;;16.78;76.57;99448.35;713299;1174;114683;-77
2022/05/21 09:23:53;;;;;;;2.40;1.20;;;;;;;16.75;75.85;99461.19;713307;1174;115927;-75
2022/05/21 09:38:56;;;;;;;3.75;1.60;;;;;;;16.88;76.38;99478.95;713688;1174;114625;-76
2022/05/21 09:53:59;;;;;;;4.05;0.98;;;;;;;16.49;77.88;99498.91;713848;1174;114901;-74
2022/05/21 10:25:15;;;;;;;2.53;1.40;;;;;;;17.36;75.57;99592.97;714122;1174;115397;-74
2022/05/21 10:40:30;;;;;;;1.30;0.87;;;;;;;16.15;80.30;99628.27;715954;1174;114841;-73
2022/05/21 10:55:48;;;;;;;2.15;0.80;;;;;;;15.60;82.60;99672.78;713641;1174;113934;-73
2022/05/21 11:11:11;;;;;;;2.68;0.70;;;;;;;15.81;81.70;99695.87;713510;1174;115287;-74
2022/05/21 11:26:26;;;;;;;3.28;1.00;;;;;;;16.01;81.96;99741.08;713402;1174;115000;-75
2022/05/21 11:41:55;;;;;;;4.48;1.40;;;;;;;15.60;81.01;99763.47;713276;1174;115192;-75
2022/05/21 11:57:04;;;;;;;6.55;2.65;;;;;;;16.10;79.51;99797.34;713327;1174;115231;-75
2022/05/21 12:12:22;;;;;;;3.75;1.70;;;;;;;17.53;75.50;99775.61;713500;1174;113952;-76
2022/05/21 12:27:27;;;;;;;3.53;1.68;;;;;;;17.13;75.69;99821.98;714107;1173;115141;-78
2022/05/21 12:42:39;;;;;;;4.03;1.77;;;;;;;17.99;73.79;99820.22;713497;1174;115412;-75
2022/05/21 12:57:50;;;;;;;4.68;3.20;;;;;;;17.67;73.00;99833.05;713480;1174;114332;-74
2022/05/21 13:12:55;;;;;;;3.08;1.58;;;;;;;18.24;68.81;99819.75;713527;1174;114710;-75
2022/05/21 13:27:58;;;;;;;1.63;1.17;;;;;;;17.54;68.78;99838.22;713592;1174;115452;-75
2022/05/21 13:43:10;;;;;;;1.30;1.20;;;;;;;17.89;67.01;99833.78;714030;1173;113886;-79
2022/05/21 13:58:38;;;;;;;1.77;1.10;;;;;;;17.20;67.98;99842.44;713509;1173;114316;-77
2022/05/21 14:13:47;;;;;;;2.75;1.30;;;;;;;17.14;68.86;99857.23;713278;1174;114038;-74
2022/05/21 14:28:50;;;;;;;;;;;;;;;17.58;68.45;99860.72;713646;1174;115418;-75
2022/05/21 14:43:52;;;;;;;6.18;3.33;;;;;;;17.53;67.56;99858.63;713510;1173;101931;-73
2022/05/21 14:58:56;;;;;;;5.67;1.90;;;;;;;17.26;67.79;99870.81;713729;1174;115289;-74
2022/05/21 15:13:59;;;;;;;5.15;2.28;;;;;;;16.54;69.36;99877.73;713584;1173;113844;-73
2022/05/21 15:29:03;;;;;;;13.00;11.33;;;;;;;16.29;72.64;99899.19;713739;1174;113675;-74
2022/05/21 15:44:06;;;;;;;6.33;2.50;;;;;;;16.34;75.89;99875.64;714339;1174;32408;-73
2022/05/21 15:59:09;;;;;;;5.30;3.68;;;;;;;16.95;73.68;99861.33;713374;1174;118257;-73
2022/05/21 16:14:12;;;;;;;5.68;1.80;;;;;;;17.21;71.90;99859.95;713508;1174;114844;-72
2022/05/21 16:29:14;;;;;;;19.47;7.87;;;;;;;16.60;72.92;99866.39;713512;1174;115325;-72
2022/05/21 16:44:17;;;;;;;12.40;8.13;;;;;;;16.39;74.83;99852.09;713528;1174;115339;-72
2022/05/21 16:59:20;;;;;;;16.58;8.88;;;;;;;16.20;77.57;99852.64;713447;1173;114158;-74
2022/05/21 17:14:23;;;;;;;20.00;6.98;;;;;;;15.97;79.60;99845.61;713551;1174;114171;-72
2022/05/21 17:44:47;;;;;;;15.98;6.20;;;;;;;15.64;82.75;99846.70;714293;1174;114380;-73
2022/05/21 17:59:51;;;;;;;21.88;9.35;;;;;;;15.51;83.25;99829.83;713734;1174;114214;-79
2022/05/21 18:14:56;;;;;;;14.97;8.07;;;;;;;15.39;84.02;99838.17;713676;1174;114180;-81
2022/05/21 18:29:59;;;;;;;11.40;5.30;;;;;;;15.24;84.72;99832.00;713846;1174;114896;-80
2022/05/21 18:45:03;;;;;;;12.13;5.25;;;;;;;14.98;88.05;99860.41;713714;1174;114264;-81
2022/05/21 19:00:15;;;;;;;8.13;4.35;;;;;;;14.42;92.49;99863.11;713693;1174;115434;-80
2022/05/21 19:15:18;;;;;;;10.05;4.15;;;;;;;14.19;95.61;99864.86;713772;1174;114387;-81
2022/05/21 19:30:21;;;;;;;9.93;4.67;;;;;;;14.03;95.68;99871.81;713404;1173;115005;-79
2022/05/21 19:45:24;;;;;;;4.88;3.93;;;;;;;13.88;97.13;99860.28;713886;1174;115246;-81
2022/05/21 20:00:26;;;;;;;6.20;3.97;;;;;;;13.79;97.50;99870.84;713738;1174;114857;-83
2022/05/21 20:15:32;;;;;;;10.85;5.60;;;;;;;13.91;99.42;99858.15;714189;1174;115191;-83
2022/05/21 20:30:37;;;;;;;6.83;4.03;;;;;;;13.89;99.36;99869.84;717095;1174;115054;-82
2022/05/21 20:45:40;;;;;;;7.00;3.63;;;;;;;13.90;100.00;99863.59;713494;1174;114371;-81
2022/05/21 21:00:43;;;;;;;4.28;2.65;;;;;;;13.80;100.00;99864.59;713349;1173;114087;-84
2022/05/21 21:15:45;;;;;;;3.87;2.73;;;;;;;13.90;100.00;99871.50;713489;1174;114569;-84
2022/05/21 21:30:48;;;;;;;4.58;2.90;;;;;;;13.70;100.00;99878.91;713712;1174;114624;-84
2022/05/21 21:45:51;;;;;;;3.75;2.60;;;;;;;13.54;100.00;99879.73;713381;1174;114521;-82
2022/05/21 22:01:37;;;;;;;3.37;2.17;;;;;;;13.46;100.00;99875.28;713539;1174;115594;-82
2022/05/21 22:16:39;;;;;;;4.63;2.10;;;;;;;13.29;100.00;99880.52;713358;1174;114456;-84
2022/05/21 22:31:42;;;;;;;1.87;1.50;;;;;;;13.17;100.00;99881.83;713462;1174;114143;-74
2022/05/21 22:46:44;;;;;;;3.50;1.78;;;;;;;13.04;100.00;99886.72;718795;1174;114458;-73
2022/05/21 23:01:47;;;;;;;2.60;2.10;;;;;;;13.11;100.00;99880.65;714049;1174;114683;-73
2022/05/21 23:32:10;;;;;;;3.03;2.20;;;;;;;13.13;100.00;99880.48;713953;1174;114726;-73
2022/05/21 23:47:13;;;;;;;2.58;1.68;;;;;;;13.03;100.00;99869.30;714048;1174;114806;-73
